createdAt,value
2022-08-18T00:00:20.910Z,51.10
2022-08-18T00:01:20.916Z,51.60
2022-08-18T00:02:24.994Z,50.00
2022-08-18T00:03:53.076Z,50.30
2022-08-18T00:04:35.009Z,49.00
2022-08-18T00:05:20.829Z,51.40
2022-08-18T00:06:20.827Z,49.50
2022-08-18T00:07:21.044Z,54.50
2022-08-18T00:08:20.857Z,49.00
2022-08-18T00:09:20.805Z,49.20
2022-08-18T00:10:20.796Z,55.60
2022-08-18T00:11:20.776Z,51.80
2022-08-18T00:12:20.747Z,53.40
2022-08-18T00:13:20.785Z,55.80
2022-08-18T00:14:21.342Z,54.70
2022-08-18T00:15:20.738Z,55.50
2022-08-18T00:16:20.701Z,55.00
2022-08-18T00:17:20.697Z,57.20
2022-08-18T00:18:20.689Z,59.30
2022-08-18T00:19:20.707Z,56.50
2022-08-18T00:20:20.663Z,55.20
2022-08-18T00:21:20.686Z,55.00
2022-08-18T00:22:20.648Z,55.20
2022-08-18T00:23:20.667Z,54.40
2022-08-18T00:24:20.641Z,55.70
2022-08-18T00:25:20.664Z,57.10
2022-08-18T00:26:20.586Z,55.50
2022-08-18T00:27:21.585Z,54.80
2022-08-18T00:28:20.572Z,56.30
2022-08-18T00:29:20.557Z,54.90
2022-08-18T00:30:20.537Z,59.10
2022-08-18T00:31:20.587Z,58.20
2022-08-18T00:32:20.533Z,60.00
2022-08-18T00:33:20.521Z,55.00
2022-08-18T00:34:20.523Z,58.80
2022-08-18T00:35:20.491Z,54.30
2022-08-18T00:36:20.476Z,54.10
2022-08-18T00:37:20.488Z,52.10
2022-08-18T00:38:23.537Z,58.60
2022-08-18T00:39:20.460Z,51.20
2022-08-18T00:40:20.503Z,55.40
2022-08-18T00:41:20.407Z,58.70
2022-08-18T00:42:27.052Z,55.10
2022-08-18T00:43:20.500Z,59.10
2022-08-18T00:44:20.384Z,67.80
2022-08-18T00:45:20.424Z,60.60
2022-08-18T00:46:20.359Z,61.80
2022-08-18T00:47:41.421Z,59.50
2022-08-18T00:48:20.364Z,58.30
2022-08-18T00:49:20.348Z,62.30
2022-08-18T00:50:20.380Z,59.80
2022-08-18T00:51:20.357Z,68.30
2022-08-18T00:52:20.282Z,60.00
2022-08-18T00:53:20.311Z,67.10
2022-08-18T00:54:20.293Z,68.50
2022-08-18T00:55:20.285Z,62.30
2022-08-18T00:56:20.245Z,67.10
2022-08-18T00:57:20.245Z,71.00
2022-08-18T00:58:20.213Z,88.50
2022-08-18T00:59:20.224Z,82.40
2022-08-18T01:00:20.232Z,74.90
2022-08-18T01:01:20.328Z,77.80
2022-08-18T01:02:20.212Z,91.20
2022-08-18T01:03:24.626Z,90.20
2022-08-18T01:04:20.194Z,95.80
2022-08-18T01:05:20.143Z,98.00
2022-08-18T01:06:20.173Z,91.60
2022-08-18T01:07:20.158Z,86.80
2022-08-18T01:08:28.472Z,90.00
2022-08-18T01:09:20.108Z,97.50
2022-08-18T01:10:20.078Z,93.10
2022-08-18T01:11:20.065Z,97.40
2022-08-18T01:12:44.538Z,104.60
2022-08-18T01:13:20.080Z,115.30
2022-08-18T01:14:20.031Z,122.50
2022-08-18T01:15:27.759Z,101.90
2022-08-18T01:16:20.047Z,88.20
2022-08-18T01:17:20.013Z,98.90
2022-08-18T01:18:20.022Z,99.10
2022-08-18T01:19:20.024Z,102.20
2022-08-18T01:20:19.979Z,119.80
2022-08-18T01:21:19.986Z,139.10
2022-08-18T01:22:19.969Z,120.00
2022-08-18T01:23:19.945Z,119.60
2022-08-18T01:24:21.947Z,118.00
2022-08-18T01:25:19.984Z,134.50
2022-08-18T01:26:19.918Z,111.30
2022-08-18T01:27:19.969Z,117.90
2022-08-18T01:28:19.875Z,120.00
2022-08-18T01:29:19.886Z,121.40
2022-08-18T01:30:19.921Z,105.40
2022-08-18T01:31:19.884Z,134.30
2022-08-18T01:32:19.850Z,112.80
2022-08-18T01:33:19.844Z,105.60
2022-08-18T01:34:19.860Z,121.10
2022-08-18T01:35:19.801Z,97.30
2022-08-18T01:36:19.830Z,112.80
2022-08-18T01:37:19.817Z,93.80
2022-08-18T01:38:19.797Z,94.20
2022-08-18T01:40:59.743Z,89.60
2022-08-18T01:41:31.303Z,88.50
2022-08-18T01:41:36.436Z,90.00
2022-08-18T01:42:36.376Z,92.50
2022-08-18T01:43:36.353Z,92.80
2022-08-18T01:44:36.355Z,87.10
2022-08-18T01:45:36.325Z,85.80
2022-08-18T01:46:36.342Z,86.30
2022-08-18T01:47:47.699Z,94.30
2022-08-18T01:48:36.323Z,83.20
2022-08-18T01:49:36.265Z,85.60
2022-08-18T01:50:36.286Z,87.60
2022-08-18T01:51:40.361Z,86.80
2022-08-18T01:52:36.259Z,92.30
2022-08-18T01:53:36.223Z,97.90
2022-08-18T01:54:36.257Z,82.90
2022-08-18T01:55:36.233Z,90.20
2022-08-18T01:56:36.215Z,90.20
2022-08-18T01:57:36.197Z,88.90
2022-08-18T01:58:36.194Z,89.90
2022-08-18T01:59:36.216Z,83.70
2022-08-18T02:00:36.228Z,83.40
2022-08-18T02:01:36.833Z,81.70
2022-08-18T02:02:36.155Z,88.60
2022-08-18T02:03:36.152Z,81.90
2022-08-18T02:04:37.427Z,84.70
2022-08-18T02:05:36.103Z,80.90
2022-08-18T02:06:36.123Z,78.20
2022-08-18T02:07:36.644Z,76.80
2022-08-18T02:08:36.082Z,85.30
2022-08-18T02:09:36.060Z,79.00
2022-08-18T02:10:36.061Z,82.70
2022-08-18T02:11:36.033Z,80.70
2022-08-18T02:12:36.053Z,84.00
2022-08-18T02:13:36.012Z,83.00
2022-08-18T02:14:36.001Z,80.00
2022-08-18T02:15:35.982Z,78.40
2022-08-18T02:16:35.981Z,77.00
2022-08-18T02:17:35.979Z,81.50
2022-08-18T02:18:47.691Z,82.00
2022-08-18T02:19:35.956Z,73.60
2022-08-18T02:20:35.924Z,79.70
2022-08-18T02:21:35.935Z,73.20
2022-08-18T02:22:35.912Z,71.90
2022-08-18T02:23:35.913Z,77.50
2022-08-18T02:24:35.914Z,84.40
2022-08-18T02:25:35.902Z,75.30
2022-08-18T02:26:35.898Z,74.60
2022-08-18T02:27:35.846Z,78.70
2022-08-18T02:28:35.849Z,82.80
2022-08-18T02:29:35.821Z,76.00
2022-08-18T02:30:35.873Z,77.60
2022-08-18T02:31:35.823Z,89.70
2022-08-18T02:32:35.802Z,89.90
2022-08-18T02:33:35.792Z,82.30
2022-08-18T02:34:35.772Z,70.90
2022-08-18T02:35:35.780Z,74.10
2022-08-18T02:36:35.771Z,79.30
2022-08-18T02:37:35.745Z,80.70
2022-08-18T02:38:35.734Z,79.30
2022-08-18T02:39:35.854Z,80.10
2022-08-18T02:40:35.721Z,76.60
2022-08-18T02:41:35.719Z,76.20
2022-08-18T02:42:35.697Z,83.90
2022-08-18T02:43:37.804Z,85.50
2022-08-18T02:44:35.667Z,84.90
2022-08-18T02:45:35.660Z,84.20
2022-08-18T02:46:35.643Z,84.50
2022-08-18T02:47:35.684Z,77.90
2022-08-18T02:48:35.636Z,80.10
2022-08-18T02:49:35.620Z,81.70
2022-08-18T02:50:35.671Z,78.20
2022-08-18T02:51:35.603Z,77.20
2022-08-18T02:52:35.587Z,79.10
2022-08-18T02:53:35.587Z,78.20
2022-08-18T02:54:35.555Z,87.00
2022-08-18T02:55:35.545Z,77.90
2022-08-18T02:56:41.019Z,74.90
2022-08-18T02:57:35.532Z,77.60
2022-08-18T02:58:35.515Z,80.80
2022-08-18T02:59:35.551Z,71.70
2022-08-18T03:00:35.502Z,76.90
2022-08-18T03:01:35.627Z,73.40
2022-08-18T03:02:35.495Z,70.70
2022-08-18T03:03:35.449Z,72.00
2022-08-18T03:04:35.479Z,77.70
2022-08-18T03:05:35.517Z,80.40
2022-08-18T03:06:35.447Z,75.00
2022-08-18T03:07:35.419Z,76.00
2022-08-18T03:08:35.409Z,80.10
2022-08-18T03:09:35.411Z,72.40
2022-08-18T03:10:35.393Z,69.60
2022-08-18T03:11:35.403Z,68.40
2022-08-18T03:12:35.380Z,71.40
2022-08-18T03:13:35.376Z,67.10
2022-08-18T03:14:35.342Z,75.10
2022-08-18T03:15:35.328Z,81.00
2022-08-18T03:16:35.302Z,76.30
2022-08-18T03:17:35.354Z,72.90
2022-08-18T03:18:35.290Z,74.50
2022-08-18T03:19:35.289Z,74.50
2022-08-18T03:20:35.257Z,72.90
2022-08-18T03:21:35.319Z,75.50
2022-08-18T03:22:35.243Z,86.90
2022-08-18T03:23:35.290Z,88.50
2022-08-18T03:24:35.237Z,78.50
2022-08-18T03:25:35.243Z,74.50
2022-08-18T03:26:35.192Z,83.50
2022-08-18T03:27:35.212Z,78.20
2022-08-18T03:28:35.201Z,79.40
2022-08-18T03:29:35.190Z,81.00
2022-08-18T03:30:35.182Z,83.30
2022-08-18T03:31:35.143Z,77.30
2022-08-18T03:32:35.127Z,85.20
2022-08-18T03:33:35.120Z,75.70
2022-08-18T03:34:35.108Z,80.20
2022-08-18T03:35:35.139Z,76.00
2022-08-18T03:36:35.111Z,81.50
2022-08-18T03:37:35.075Z,84.80
2022-08-18T03:38:35.124Z,88.20
2022-08-18T03:39:35.062Z,79.20
2022-08-18T03:40:35.097Z,83.80
2022-08-18T03:41:43.665Z,85.90
2022-08-18T03:42:35.030Z,95.30
2022-08-18T03:43:51.393Z,89.80
2022-08-18T03:44:35.011Z,91.90
2022-08-18T03:45:35.031Z,86.30
2022-08-18T03:46:34.975Z,82.30
2022-08-18T03:47:34.963Z,86.70
2022-08-18T03:48:34.965Z,93.80
2022-08-18T03:49:34.948Z,89.10
2022-08-18T03:50:34.943Z,76.30
2022-08-18T03:51:34.992Z,80.00
2022-08-18T03:52:34.917Z,81.50
2022-08-18T03:53:34.911Z,86.30
2022-08-18T03:54:34.885Z,85.70
2022-08-18T03:55:34.886Z,86.10
2022-08-18T03:56:34.877Z,85.80
2022-08-18T03:57:38.911Z,88.00
2022-08-18T03:58:34.857Z,100.70
2022-08-18T03:59:34.853Z,90.30
2022-08-18T04:00:34.842Z,84.70
2022-08-18T04:01:34.853Z,86.70
2022-08-18T04:02:34.884Z,80.50
2022-08-18T04:03:34.821Z,83.20
2022-08-18T04:04:34.781Z,94.00
2022-08-18T04:05:34.789Z,83.10
2022-08-18T04:06:34.754Z,83.70
2022-08-18T04:07:34.832Z,90.20
2022-08-18T04:08:34.739Z,84.70
2022-08-18T04:09:34.729Z,79.60
2022-08-18T04:10:34.727Z,96.30
2022-08-18T04:11:36.539Z,88.60
2022-08-18T04:12:34.749Z,90.80
2022-08-18T04:13:34.697Z,86.00
2022-08-18T04:14:34.672Z,102.20
2022-08-18T04:15:34.684Z,95.20
2022-08-18T04:16:34.656Z,82.00
2022-08-18T04:17:34.673Z,85.70
2022-08-18T04:18:34.632Z,84.80
2022-08-18T04:19:34.627Z,85.10
2022-08-18T04:20:34.639Z,86.50
2022-08-18T04:21:34.596Z,86.90
2022-08-18T04:22:34.609Z,85.00
2022-08-18T04:23:43.666Z,85.30
2022-08-18T04:24:34.575Z,93.20
2022-08-18T04:25:34.552Z,88.80
2022-08-18T04:26:34.576Z,84.10
2022-08-18T04:27:34.602Z,87.30
2022-08-18T04:28:34.549Z,82.70
2022-08-18T04:29:34.513Z,79.10
2022-08-18T04:30:34.495Z,82.50
2022-08-18T04:31:34.512Z,82.70
2022-08-18T04:32:34.507Z,81.10
2022-08-18T04:33:34.500Z,90.70
2022-08-18T04:34:34.470Z,85.60
2022-08-18T04:35:34.472Z,86.50
2022-08-18T04:36:34.429Z,86.40
2022-08-18T04:37:39.768Z,82.80
2022-08-18T04:38:34.434Z,85.50
2022-08-18T04:39:34.461Z,78.10
2022-08-18T04:40:34.395Z,99.50
2022-08-18T04:41:34.392Z,94.10
2022-08-18T04:42:34.401Z,92.90
2022-08-18T04:43:34.359Z,82.70
2022-08-18T04:44:34.358Z,95.00
2022-08-18T04:45:34.348Z,95.60
2022-08-18T04:46:34.353Z,86.40
2022-08-18T04:47:34.355Z,84.30
2022-08-18T04:48:34.306Z,96.00
2022-08-18T04:49:34.309Z,92.90
2022-08-18T04:50:34.277Z,95.60
2022-08-18T04:52:33.940Z,92.00
2022-08-18T04:52:45.726Z,100.90
2022-08-18T04:53:34.255Z,101.80
2022-08-18T04:54:34.247Z,85.40
2022-08-18T04:55:34.260Z,91.20
2022-08-18T04:56:34.244Z,86.70
2022-08-18T04:57:35.182Z,95.90
2022-08-18T04:58:34.191Z,90.50
2022-08-18T04:59:34.195Z,101.10
2022-08-18T05:00:34.180Z,89.90
2022-08-18T05:01:34.229Z,98.00
2022-08-18T05:02:34.181Z,91.70
2022-08-18T05:03:34.189Z,93.40
2022-08-18T05:04:34.154Z,86.50
2022-08-18T05:05:34.118Z,106.40
2022-08-18T05:06:34.130Z,95.40
2022-08-18T05:07:34.113Z,108.50
2022-08-18T05:08:34.085Z,106.50
2022-08-18T05:09:41.284Z,98.00
2022-08-18T05:10:34.056Z,107.30
2022-08-18T05:11:34.042Z,106.10
2022-08-18T05:12:34.062Z,97.40
2022-08-18T05:13:34.092Z,109.80
2022-08-18T05:14:34.016Z,103.40
2022-08-18T05:15:47.158Z,98.40
2022-08-18T05:16:33.993Z,108.10
2022-08-18T05:17:33.975Z,93.60
2022-08-18T05:18:33.974Z,92.20
2022-08-18T05:19:34.040Z,106.90
2022-08-18T05:20:33.935Z,105.10
2022-08-18T05:21:33.914Z,96.40
2022-08-18T05:22:33.904Z,97.50
2022-08-18T05:23:33.928Z,106.30
2022-08-18T05:37:23.576Z,97.60
2022-08-18T05:38:24.462Z,94.90
2022-08-18T05:39:24.489Z,94.30
2022-08-18T05:40:24.517Z,96.90
2022-08-18T05:41:24.420Z,96.00
2022-08-18T05:42:24.418Z,96.00
2022-08-18T05:43:24.409Z,92.80
2022-08-18T05:44:24.410Z,101.60
2022-08-18T05:45:24.393Z,103.50
2022-08-18T05:46:24.369Z,94.90
2022-08-18T05:47:24.369Z,105.20
2022-08-18T05:48:24.345Z,94.60
2022-08-18T05:49:24.370Z,102.30
2022-08-18T05:50:24.380Z,103.80
2022-08-18T05:51:24.370Z,105.60
2022-08-18T05:52:24.301Z,94.90
2022-08-18T05:53:24.334Z,94.70
2022-08-18T05:54:24.309Z,89.80
2022-08-18T05:55:24.340Z,105.80
2022-08-18T05:56:24.285Z,106.80
2022-08-18T05:57:24.278Z,96.70
2022-08-18T05:58:24.254Z,103.20
2022-08-18T05:59:24.232Z,106.30
2022-08-18T06:00:24.463Z,112.40
2022-08-18T06:01:24.213Z,110.90
2022-08-18T06:02:24.191Z,98.80
2022-08-18T06:03:24.241Z,112.00
2022-08-18T06:04:24.193Z,117.30
2022-08-18T06:05:24.181Z,106.40
2022-08-18T06:06:24.197Z,107.30
2022-08-18T06:07:24.161Z,108.00
2022-08-18T06:08:24.124Z,107.40
2022-08-18T06:09:24.141Z,102.70
2022-08-18T06:10:24.109Z,113.10
2022-08-18T06:11:24.138Z,103.70
2022-08-18T06:12:24.093Z,118.70
2022-08-18T06:13:24.099Z,115.70
2022-08-18T06:14:24.065Z,107.40
2022-08-18T06:15:24.058Z,106.10
2022-08-18T06:16:24.083Z,103.50
2022-08-18T06:17:24.059Z,116.60
2022-08-18T06:18:24.036Z,120.40
2022-08-18T06:19:24.162Z,104.60
2022-08-18T06:20:24.019Z,117.00
2022-08-18T06:21:24.645Z,110.80
2022-08-18T06:22:24.007Z,107.20
2022-08-18T06:23:23.970Z,112.70
2022-08-18T06:24:23.945Z,116.70
2022-08-18T06:25:23.947Z,118.00
2022-08-18T06:26:23.936Z,109.10
2022-08-18T06:27:23.964Z,110.90
2022-08-18T06:28:23.936Z,115.90
2022-08-18T06:29:23.903Z,111.10
2022-08-18T06:30:23.910Z,116.00
2022-08-18T06:31:28.914Z,105.30
2022-08-18T06:32:23.897Z,113.60
2022-08-18T06:33:23.876Z,102.40
2022-08-18T06:34:23.866Z,98.90
2022-08-18T06:35:23.857Z,106.80
2022-08-18T06:36:23.820Z,97.60
2022-08-18T06:37:23.825Z,111.40
2022-08-18T06:38:23.813Z,111.50
2022-08-18T06:39:23.779Z,109.70
2022-08-18T06:40:23.786Z,110.50
2022-08-18T06:41:40.773Z,107.60
2022-08-18T06:42:23.776Z,108.10
2022-08-18T06:43:23.772Z,110.10
2022-08-18T06:44:23.753Z,111.20
2022-08-18T06:45:23.727Z,111.00
2022-08-18T06:46:23.740Z,105.40
2022-08-18T06:47:23.716Z,104.30
2022-08-18T06:48:23.727Z,104.60
2022-08-18T06:49:23.684Z,104.60
2022-08-18T06:50:23.715Z,100.70
2022-08-18T06:51:23.681Z,99.60
2022-08-18T06:52:23.653Z,103.40
2022-08-18T06:53:27.737Z,101.00
2022-08-18T06:54:23.638Z,96.30
2022-08-18T06:55:23.654Z,95.20
2022-08-18T06:56:25.835Z,91.30
2022-08-18T06:57:23.611Z,98.10
2022-08-18T06:58:23.642Z,97.50
2022-08-18T06:59:23.583Z,93.40
2022-08-18T07:00:23.565Z,101.60
2022-08-18T07:01:23.650Z,102.10
2022-08-18T07:02:23.562Z,104.20
2022-08-18T07:03:23.547Z,102.80
2022-08-18T07:04:23.556Z,101.60
2022-08-18T07:05:23.530Z,99.90
2022-08-18T07:06:23.499Z,100.10
2022-08-18T07:07:23.502Z,101.20
2022-08-18T07:08:23.494Z,100.70
2022-08-18T07:09:23.484Z,101.10
2022-08-18T07:10:23.458Z,95.90
2022-08-18T07:11:23.463Z,98.40
2022-08-18T07:12:23.441Z,91.10
2022-08-18T07:13:23.428Z,86.10
2022-08-18T07:14:23.464Z,92.30
2022-08-18T07:15:23.402Z,97.50
2022-08-18T07:16:40.587Z,99.90
2022-08-18T07:17:23.396Z,100.20
2022-08-18T07:18:23.382Z,97.30
2022-08-18T07:19:23.375Z,98.50
2022-08-18T07:20:23.404Z,92.50
2022-08-18T07:21:23.348Z,97.80
2022-08-18T07:22:33.686Z,96.00
2022-08-18T07:23:23.338Z,97.20
2022-08-18T07:24:25.258Z,96.90
2022-08-18T07:25:23.326Z,98.20
2022-08-18T07:26:23.301Z,95.60
2022-08-18T07:27:23.288Z,92.60
2022-08-18T07:28:23.276Z,95.50
2022-08-18T07:29:23.262Z,95.40
2022-08-18T07:30:23.339Z,95.80
2022-08-18T07:31:23.280Z,95.80
2022-08-18T07:32:23.212Z,94.90
2022-08-18T07:33:23.194Z,95.90
2022-08-18T07:34:23.252Z,95.40
2022-08-18T07:35:23.177Z,93.20
2022-08-18T07:36:23.222Z,86.30
2022-08-18T07:37:28.455Z,91.40
2022-08-18T07:39:23.161Z,92.70
2022-08-18T07:40:23.280Z,86.70
2022-08-18T07:41:23.161Z,91.10
2022-08-18T07:42:31.922Z,89.50
2022-08-18T07:43:23.973Z,83.10
2022-08-18T07:44:23.090Z,91.90
2022-08-18T07:45:23.908Z,91.70
2022-08-18T07:46:23.096Z,81.50
2022-08-18T07:47:23.056Z,91.20
2022-08-18T07:48:39.839Z,83.70
2022-08-18T07:49:23.059Z,88.10
2022-08-18T07:50:55.223Z,87.80
2022-08-18T07:51:23.063Z,88.20
2022-08-18T07:52:43.657Z,88.20
2022-08-18T07:53:23.023Z,87.80
2022-08-18T07:54:47.827Z,83.60
2022-08-18T07:55:22.979Z,80.10
2022-08-18T07:56:22.969Z,77.50
2022-08-18T07:57:22.988Z,78.50
2022-08-18T07:58:22.950Z,71.60
2022-08-18T07:59:22.923Z,75.30
2022-08-18T08:00:40.934Z,74.00
2022-08-18T08:01:22.957Z,67.70
2022-08-18T08:02:22.934Z,65.40
2022-08-18T08:03:22.873Z,68.00
2022-08-18T08:04:25.618Z,64.10
2022-08-18T08:05:22.865Z,62.00
2022-08-18T08:06:22.839Z,57.40
2022-08-18T08:07:24.867Z,52.20
2022-08-18T08:08:25.138Z,49.10
2022-08-18T08:09:22.837Z,44.30
2022-08-18T08:10:22.811Z,42.40
2022-08-18T08:11:22.790Z,41.00
2022-08-18T08:12:22.779Z,39.50
2022-08-18T08:13:51.264Z,38.00
2022-08-18T08:14:26.308Z,37.80
2022-08-18T08:15:27.064Z,37.90
2022-08-18T08:16:22.746Z,36.50
2022-08-18T08:17:22.791Z,37.10
2022-08-18T08:18:22.754Z,36.40
2022-08-18T08:19:42.438Z,35.70
2022-08-18T08:20:22.718Z,36.50
2022-08-18T08:21:22.688Z,35.30
2022-08-18T08:22:22.677Z,36.20
2022-08-18T08:23:22.685Z,34.20
2022-08-18T08:24:22.643Z,34.40
2022-08-18T08:25:45.090Z,34.50
2022-08-18T08:26:22.633Z,34.60
2022-08-18T08:27:22.631Z,35.10
2022-08-18T08:28:22.625Z,34.00
2022-08-18T08:29:22.590Z,33.90
2022-08-18T08:30:22.587Z,33.30
2022-08-18T08:31:36.700Z,34.30
2022-08-18T08:32:22.625Z,34.50
2022-08-18T08:33:22.572Z,33.10
2022-08-18T08:34:22.564Z,33.00
2022-08-18T08:35:50.064Z,33.60
2022-08-18T08:36:22.516Z,33.10
2022-08-18T08:37:22.495Z,32.60
2022-08-18T08:38:40.196Z,32.00
2022-08-18T08:39:22.523Z,31.30
2022-08-18T08:40:22.613Z,33.10
2022-08-18T08:41:22.533Z,32.50
2022-08-18T08:42:31.874Z,33.00
2022-08-18T08:43:22.460Z,33.20
2022-08-18T08:44:22.459Z,31.80
2022-08-18T08:45:22.500Z,31.60
2022-08-18T08:46:22.420Z,32.10
2022-08-18T08:47:23.066Z,33.30
2022-08-18T08:48:22.397Z,30.10
2022-08-18T08:49:22.419Z,31.10
2022-08-18T08:50:22.356Z,30.80
2022-08-18T08:51:22.344Z,31.50
2022-08-18T08:52:22.333Z,32.90
2022-08-18T08:53:22.332Z,33.00
2022-08-18T08:54:22.344Z,31.10
2022-08-18T08:55:22.384Z,30.90
2022-08-18T08:56:22.277Z,31.60
2022-08-18T08:57:22.272Z,29.40
2022-08-18T08:58:23.410Z,30.40
2022-08-18T08:59:22.301Z,29.30
2022-08-18T09:00:22.262Z,29.50
2022-08-18T09:01:22.339Z,28.10
2022-08-18T09:02:44.763Z,29.50
2022-08-18T09:03:29.984Z,27.80
2022-08-18T09:04:22.213Z,28.00
2022-08-18T09:05:22.305Z,28.00
2022-08-18T09:06:22.169Z,27.50
2022-08-18T09:07:22.214Z,27.70
2022-08-18T09:08:22.256Z,27.80
2022-08-18T09:09:22.180Z,27.80
2022-08-18T09:10:22.760Z,28.90
2022-08-18T09:11:22.129Z,27.40
2022-08-18T09:12:22.145Z,27.60
2022-08-18T09:13:26.912Z,27.50
2022-08-18T09:14:22.116Z,26.20
2022-08-18T09:15:22.119Z,28.90
2022-08-18T09:16:22.085Z,28.40
2022-08-18T09:17:22.079Z,26.80
2022-08-18T09:18:22.046Z,27.20
2022-08-18T09:19:23.333Z,28.50
2022-08-18T09:20:22.037Z,26.50
2022-08-18T09:21:22.048Z,28.60
2022-08-18T09:22:22.002Z,24.90
2022-08-18T09:23:21.992Z,28.50
2022-08-18T09:24:21.994Z,26.10
2022-08-18T09:25:22.025Z,26.40
2022-08-18T09:26:21.996Z,26.00
2022-08-18T09:27:21.947Z,28.20
2022-08-18T09:28:21.936Z,27.20
2022-08-18T09:29:21.961Z,26.80
2022-08-18T09:30:21.930Z,28.00
2022-08-18T09:31:21.949Z,25.50
2022-08-18T09:32:22.805Z,26.60
2022-08-18T09:33:21.933Z,25.00
2022-08-18T09:34:21.882Z,25.00
2022-08-18T09:35:23.120Z,26.00
2022-08-18T09:36:21.892Z,25.70
2022-08-18T09:37:24.269Z,24.80
2022-08-18T09:38:21.822Z,25.70
2022-08-18T09:39:23.221Z,27.40
2022-08-18T13:04:56.010Z,26.20
2022-08-18T13:05:01.115Z,23.40
2022-08-18T13:06:01.294Z,8.30
2022-08-18T13:07:05.764Z,8.60
2022-08-18T13:08:04.243Z,8.80
2022-08-18T13:09:00.978Z,9.70
2022-08-18T13:10:00.979Z,8.40
2022-08-18T13:11:21.507Z,8.70
2022-08-18T13:12:01.004Z,8.60
2022-08-18T13:13:00.935Z,9.10
2022-08-18T13:14:00.928Z,9.10
2022-08-18T13:15:00.941Z,8.10
2022-08-18T13:16:03.309Z,8.90
2022-08-18T13:17:00.919Z,8.50
2022-08-18T13:18:00.897Z,8.80
2022-08-18T13:19:00.885Z,8.00
2022-08-18T13:20:01.074Z,8.50
2022-08-18T13:21:00.855Z,8.20
2022-08-18T13:22:00.869Z,8.40
2022-08-18T13:23:00.828Z,8.60
2022-08-18T13:24:00.819Z,8.40
2022-08-18T13:25:00.847Z,10.00
2022-08-18T13:26:01.944Z,9.70
2022-08-18T13:27:00.807Z,8.70
2022-08-18T13:28:01.933Z,8.50
2022-08-18T13:29:00.791Z,10.90
2022-08-18T13:30:00.760Z,10.90
2022-08-18T13:31:00.761Z,11.10
2022-08-18T13:32:00.765Z,10.20
2022-08-18T13:33:05.564Z,11.50
2022-08-18T13:34:03.722Z,9.80
2022-08-18T13:35:02.640Z,9.70
2022-08-18T13:36:00.691Z,10.10
2022-08-18T13:37:00.756Z,10.40
2022-08-18T13:38:00.660Z,10.10
2022-08-18T13:39:00.648Z,9.90
2022-08-18T13:40:01.992Z,9.90
2022-08-18T13:41:00.676Z,10.10
2022-08-18T13:42:00.953Z,9.30
2022-08-18T13:43:00.634Z,8.00
2022-08-18T13:44:00.616Z,9.50
2022-08-18T13:45:24.698Z,11.10
2022-08-18T13:46:00.948Z,10.60
2022-08-18T13:47:00.575Z,11.30
2022-08-18T13:48:00.583Z,9.90
2022-08-18T13:49:00.550Z,8.70
2022-08-18T13:50:00.551Z,11.60
2022-08-18T13:51:01.305Z,10.10
2022-08-18T13:52:01.200Z,10.50
2022-08-18T13:53:00.606Z,10.10
2022-08-18T13:54:26.380Z,9.90
2022-08-18T13:55:00.539Z,10.10
2022-08-18T13:56:00.475Z,10.20
2022-08-18T13:57:00.481Z,9.00
2022-08-18T13:58:00.678Z,7.90
2022-08-18T13:59:00.461Z,8.30
2022-08-18T14:00:00.460Z,8.30
2022-08-18T14:02:00.640Z,8.40
2022-08-18T14:03:00.403Z,7.70
2022-08-18T14:04:00.425Z,8.30
2022-08-18T14:05:00.403Z,7.40
2022-08-18T14:06:01.492Z,7.60
2022-08-18T14:07:03.025Z,7.20
2022-08-18T14:08:00.361Z,7.10
2022-08-18T14:09:00.346Z,7.80
2022-08-18T14:10:04.603Z,7.70
2022-08-18T14:11:00.316Z,7.50
2022-08-18T14:12:00.309Z,7.70
2022-08-18T14:13:00.293Z,8.10
2022-08-18T14:14:00.299Z,7.70
2022-08-18T14:15:00.258Z,8.00
2022-08-18T14:16:00.259Z,8.40
2022-08-18T14:17:00.276Z,8.90
2022-08-18T14:18:00.303Z,8.50
2022-08-18T14:19:00.241Z,8.10
2022-08-18T14:20:00.261Z,8.30
2022-08-18T14:21:00.203Z,8.20
2022-08-18T14:22:00.190Z,8.20
2022-08-18T14:23:00.192Z,7.90
2022-08-18T14:24:00.171Z,7.00
2022-08-18T14:25:00.318Z,6.80
2022-08-18T14:26:00.407Z,7.60
2022-08-18T14:27:00.194Z,8.50
2022-08-18T14:28:00.159Z,7.00
2022-08-18T14:29:00.123Z,7.10
2022-08-18T14:30:00.275Z,7.50
2022-08-18T14:31:00.142Z,8.30
2022-08-18T14:32:00.104Z,7.60
2022-08-18T14:33:00.237Z,8.50
2022-08-18T14:34:03.187Z,7.40
2022-08-18T14:35:01.025Z,7.70
2022-08-18T14:36:06.656Z,7.00
2022-08-18T14:37:00.092Z,7.50
2022-08-18T14:38:00.077Z,7.10
2022-08-18T14:39:00.032Z,8.20
2022-08-18T14:40:00.146Z,7.60
2022-08-18T14:41:00.013Z,8.20
2022-08-18T14:42:03.051Z,8.60
2022-08-18T14:42:59.967Z,7.00
2022-08-18T14:44:12.238Z,8.10
2022-08-18T14:45:17.056Z,9.50
2022-08-18T14:45:59.943Z,8.30
2022-08-18T14:46:59.906Z,8.60
2022-08-18T14:47:59.913Z,8.20
2022-08-18T14:48:59.888Z,8.80
2022-08-18T14:49:59.912Z,7.60
2022-08-18T14:50:59.905Z,8.90
2022-08-18T14:51:59.856Z,7.90
2022-08-18T14:52:59.840Z,8.70
2022-08-18T14:53:59.845Z,7.30
2022-08-18T14:54:59.826Z,8.00
2022-08-18T14:55:59.818Z,7.80
2022-08-18T14:56:59.860Z,7.50
2022-08-18T14:58:00.198Z,7.90
2022-08-18T14:58:59.815Z,8.60
2022-08-18T14:59:59.788Z,7.70
2022-08-18T15:01:00.029Z,7.70
2022-08-18T15:01:59.817Z,7.50
2022-08-18T15:03:00.181Z,7.00
2022-08-18T15:03:59.752Z,7.20
2022-08-18T15:04:59.721Z,7.20
2022-08-18T15:05:59.738Z,7.40
2022-08-18T15:06:59.716Z,7.70
2022-08-18T15:07:59.685Z,7.70
2022-08-18T15:08:59.685Z,6.80
2022-08-18T15:10:15.207Z,6.30
2022-08-18T15:10:59.650Z,6.80
2022-08-18T15:11:59.683Z,6.70
2022-08-18T15:12:59.625Z,6.80
2022-08-18T15:13:59.622Z,7.00
2022-08-18T15:14:59.627Z,6.40
2022-08-18T15:16:01.789Z,6.80
2022-08-18T15:16:59.608Z,6.60
2022-08-18T15:17:59.578Z,7.00
2022-08-18T15:18:59.584Z,6.90
2022-08-18T15:20:01.349Z,6.80
2022-08-18T15:20:59.546Z,6.90
2022-08-18T15:21:59.593Z,7.00
2022-08-18T15:22:59.545Z,7.20
2022-08-18T15:23:59.537Z,6.80
2022-08-18T15:24:59.509Z,6.20
2022-08-18T15:25:59.527Z,7.00
2022-08-18T15:27:05.611Z,6.20
2022-08-18T15:27:59.511Z,5.80
2022-08-18T15:29:00.191Z,7.00
2022-08-18T15:29:59.461Z,6.50
2022-08-18T15:32:02.289Z,6.80
2022-08-18T15:32:59.460Z,6.80
2022-08-18T15:33:59.415Z,7.10
2022-08-18T15:34:59.393Z,7.00
2022-08-18T15:35:59.397Z,7.90
2022-08-18T15:37:03.021Z,7.50
2022-08-18T15:37:59.405Z,7.00
2022-08-18T15:38:59.379Z,7.30
2022-08-18T15:39:59.427Z,6.50
2022-08-18T15:40:59.355Z,6.20
2022-08-18T15:41:59.894Z,6.00
2022-08-18T15:42:59.371Z,6.10
2022-08-18T15:43:59.304Z,5.80
2022-08-18T15:44:59.329Z,5.80
2022-08-18T15:45:59.298Z,6.30
2022-08-18T15:46:59.304Z,6.30
2022-08-18T15:47:59.299Z,7.30
2022-08-18T15:48:59.268Z,6.80
2022-08-18T15:49:59.246Z,6.30
2022-08-18T15:51:11.547Z,5.70
2022-08-18T15:51:59.252Z,6.30
2022-08-18T15:52:59.241Z,6.20
2022-08-18T15:53:59.225Z,6.10
2022-08-18T15:55:02.401Z,6.40
2022-08-18T15:56:04.075Z,6.00
2022-08-18T15:56:59.188Z,6.10
2022-08-18T15:57:59.261Z,6.00
2022-08-18T15:59:00.590Z,6.20
2022-08-18T15:59:59.151Z,6.40
2022-08-18T16:00:59.163Z,5.80
2022-08-18T16:01:59.170Z,6.90
2022-08-18T16:02:59.141Z,6.20
2022-08-18T16:03:59.142Z,5.90
2022-08-18T16:05:00.994Z,6.00
2022-08-18T16:05:59.103Z,5.70
2022-08-18T16:06:59.066Z,6.50
2022-08-18T16:07:59.065Z,5.80
2022-08-18T16:08:59.038Z,5.90
2022-08-18T16:09:59.021Z,5.80
2022-08-18T16:10:59.039Z,7.20
2022-08-18T16:12:00.455Z,6.50
2022-08-18T16:12:59.017Z,5.50
2022-08-18T16:13:59.174Z,5.90
2022-08-18T16:14:59.058Z,5.70
2022-08-18T16:15:58.977Z,5.60
2022-08-18T16:17:00.236Z,5.30
2022-08-18T16:17:58.984Z,5.70
2022-08-18T16:18:58.922Z,9.60
2022-08-18T16:19:58.940Z,5.70
2022-08-18T16:20:58.934Z,5.30
2022-08-18T16:21:58.941Z,5.70
2022-08-18T16:22:58.938Z,5.50
2022-08-18T16:23:58.885Z,6.00
2022-08-18T16:24:58.859Z,5.50
2022-08-18T16:25:58.845Z,4.80
2022-08-18T16:26:58.897Z,5.00
2022-08-18T16:27:58.838Z,5.20
2022-08-18T16:29:01.656Z,5.00
2022-08-18T16:29:58.803Z,5.00
2022-08-18T16:30:58.810Z,5.30
2022-08-18T16:31:58.785Z,6.00
2022-08-18T16:32:58.772Z,4.80
2022-08-18T16:33:58.823Z,5.50
2022-08-18T16:34:58.769Z,5.10